Airfield :
LOGIN :

Register | Disclaimer

   EN    FR    IT 

 










Legend :    VFR   Marginal VFR   IFR   Intensive IFR   Very Intensive IFR
Visi :
Ceiling :
>= 8 km
>= 3000ft
5 to 8 km
1000 to 3000 ft
1500m to 5 km
500 to 1000 ft
800 to 1500m
200 to 500 ft
< 800m
< 200 ft
Symbols :   Thunderstorms  Fog  Heavy snow  Heavy precipitations  Wind > 20 kt
SIGMETs :     Misc.  Thunderstorms  Icing  Turbulence  Mountain Waves  Volcanic Ashes







- Airport Elevation : 46 ft
- IATA code : SNN


EINN - Shannon

CURRENT METAR :
  • 201400Z 20016KT 9999 FEW016 BKN037 14/09 Q1008 NOSIG

EXPIRED METARs :
  • 201330Z 19013KT 9999 FEW016 SCT027 BKN035 14/09 Q1008 NOSIG
  • 201300Z 19012KT 9999 FEW016 SCT030 BKN048 14/09 Q1008 NOSIG
  • 201230Z 19015KT 9999 FEW016 BKN048 14/09 Q1008 NOSIG
  • 201200Z 19014KT 9999 FEW016 SCT022 BKN040 14/09 Q1008 NOSIG
  • 201130Z 19014KT 9999 FEW012 SCT018 BKN042 14/09 Q1007 NOSIG
  • 201100Z 18011KT 9999 FEW010 SCT017 BKN021 13/10 Q1007 NOSIG

TAF TAF EINN
Valid from the 20 at 12:00 until the 21 at 12:00 UTC


201100Z 2012/2112 17012KT 9999 SCT012 BKN025
TEMPO 2018/2024 4000 -RA BKN008
TEMPO 2021/2112 17016G27KT
TEMPO 2100/2108 -DZ BKN008
No reported NOTAMs for that airfield.



MET'MAP, your aeronautical weather chart ! - Copyright ORBIFLY December 2007 - Disclaimer

ORBIFLY MET'MAP TEAM :

Programming & Development : Alexandra Zaïnal
Concept & Development : Baudouin d'Aumeries
Co-Development & Prog : Marc-Olivier Méhu
Technical & hardware support : Manuel Goepfert

Contact : metmap@orbifly.com




SOURCES & CREDITS :

   NOAA